Time;durP1;ratioP1;P1;durP2;ratioP2;P2;SDS_P1;SDS_P2;PMS_P1;PMS_P2;Temp;Humidity;BMP_temperature;BMP_pressure;BME280_temperature;BME280_humidity;BME280_pressure;Samples;Min_cycle;Max_cycle;Signal;HPM_P1;HPM_P2
2021/08/19 00:00:09;;;;;;;69.10;46.28;;;;;;;20.49;59.40;99248.03;5076815;28;20033;-70
2021/08/19 00:02:34;;;;;;;66.93;44.10;;;;;;;20.47;59.71;99250.13;5076821;28;20024;-71
2021/08/19 00:04:59;;;;;;;72.10;47.55;;;;;;;20.48;60.04;99248.22;5081908;28;20015;-71
2021/08/19 00:07:25;;;;;;;61.65;42.95;;;;;;;20.46;59.95;99250.34;5076570;28;20061;-72
2021/08/19 00:09:52;;;;;;;63.08;45.03;;;;;;;20.44;60.84;99253.28;5076346;28;20027;-72
2021/08/19 00:12:55;;;;;;;69.18;45.00;;;;;;;20.45;59.38;99248.66;5088107;28;20027;-71
2021/08/19 00:15:20;;;;;;;73.53;45.58;;;;;;;20.39;60.21;99258.56;5028449;28;20037;-70
2021/08/19 00:17:46;;;;;;;71.97;46.58;;;;;;;20.39;59.63;99250.38;5016988;28;20486;-66
2021/08/19 00:20:12;;;;;;;67.03;45.40;;;;;;;20.36;60.21;99242.63;5015822;28;20030;-71
2021/08/19 00:22:37;;;;;;;64.68;43.20;;;;;;;20.34;59.79;99251.06;5014479;28;20053;-71
2021/08/19 00:25:05;;;;;;;69.75;46.78;;;;;;;20.40;59.67;99241.97;5014216;28;20034;-71
2021/08/19 00:27:30;;;;;;;70.65;46.85;;;;;;;20.40;60.25;99249.31;5014228;28;20049;-71
2021/08/19 00:29:55;;;;;;;70.07;47.50;;;;;;;20.37;59.90;99249.75;5016726;28;20410;-72
2021/08/19 00:32:21;;;;;;;64.07;43.97;;;;;;;20.35;60.39;99251.88;4997736;28;20030;-70
2021/08/19 00:34:46;;;;;;;68.90;47.72;;;;;;;20.36;60.76;99253.56;4997527;28;20169;-69
2021/08/19 00:37:12;;;;;;;70.35;45.63;;;;;;;20.33;60.86;99248.53;5014062;28;20041;-70
2021/08/19 00:39:38;;;;;;;65.68;45.20;;;;;;;20.38;59.79;99252.28;5014155;28;20038;-71
2021/08/19 00:42:05;;;;;;;72.90;46.42;;;;;;;20.37;59.91;99255.22;5019421;28;20112;-72
2021/08/19 00:44:30;;;;;;;64.35;44.60;;;;;;;20.33;60.45;99251.28;4996702;28;20033;-71
2021/08/19 00:46:56;;;;;;;66.85;43.58;;;;;;;20.33;60.60;99260.31;4993515;28;20390;-72
2021/08/19 00:49:21;;;;;;;67.20;44.15;;;;;;;20.34;60.07;99256.50;5037349;28;20090;-71
2021/08/19 00:51:52;;;;;;;67.40;45.10;;;;;;;20.29;60.09;99253.59;5075554;28;20024;-72
2021/08/19 00:54:20;;;;;;;64.05;41.97;;;;;;;20.30;60.04;99254.44;5081798;28;20063;-72
2021/08/19 00:56:46;;;;;;;64.22;44.88;;;;;;;20.29;59.98;99263.66;5075334;28;20041;-71
2021/08/19 00:59:12;;;;;;;62.88;43.03;;;;;;;20.29;59.88;99260.94;5087696;28;20030;-71
2021/08/19 01:01:38;;;;;;;62.53;42.83;;;;;;;20.29;59.92;99267.22;5096161;28;20024;-72
2021/08/19 01:04:07;;;;;;;72.63;48.72;;;;;;;20.31;60.23;99264.28;5094342;28;20089;-71
2021/08/19 01:06:34;;;;;;;68.90;46.28;;;;;;;20.24;60.45;99266.25;5087007;28;20020;-69
2021/08/19 01:09:00;;;;;;;71.28;49.03;;;;;;;20.24;60.46;99256.16;5086231;28;20062;-71
2021/08/19 01:11:26;;;;;;;66.00;44.63;;;;;;;20.25;60.27;99257.00;5091841;28;20537;-72
2021/08/19 01:13:51;;;;;;;63.42;44.15;;;;;;;20.28;59.76;99262.84;5092577;28;20032;-71
2021/08/19 01:16:19;;;;;;;66.53;44.30;;;;;;;20.23;60.58;99259.09;5093525;28;20781;-71
2021/08/19 01:18:46;;;;;;;67.72;45.25;;;;;;;20.28;60.46;99262.00;5075399;28;20082;-71
2021/08/19 01:21:15;;;;;;;65.32;45.20;;;;;;;20.27;60.66;99260.34;5079086;28;20110;-71
2021/08/19 01:23:41;;;;;;;67.90;46.20;;;;;;;20.26;59.72;99259.50;5075191;28;20028;-70
2021/08/19 01:26:10;;;;;;;59.22;42.47;;;;;;;20.29;59.26;99263.66;5074971;28;20049;-72
2021/08/19 01:28:37;;;;;;;70.65;46.10;;;;;;;20.23;60.34;99259.94;5074962;28;20021;-72
2021/08/19 01:31:03;;;;;;;61.08;41.80;;;;;;;20.27;59.82;99254.88;5073531;28;20092;-72
2021/08/19 01:33:30;;;;;;;65.45;43.72;;;;;;;20.22;60.15;99251.97;5080916;28;20139;-71
2021/08/19 01:35:57;;;;;;;66.05;45.50;;;;;;;20.20;60.69;99248.66;5093129;28;20048;-72
2021/08/19 01:38:30;;;;;;;67.13;44.47;;;;;;;20.20;61.56;99240.47;5095243;28;20358;-72
2021/08/19 01:40:56;;;;;;;69.03;45.92;;;;;;;20.19;60.63;99253.28;5095148;28;20388;-70
2021/08/19 01:43:23;;;;;;;59.92;42.60;;;;;;;20.17;60.34;99260.00;5094053;28;20020;-70
2021/08/19 01:45:48;;;;;;;62.92;44.22;;;;;;;20.08;60.75;99252.06;5102199;28;20162;-70
2021/08/19 01:48:17;;;;;;;67.93;46.60;;;;;;;20.16;60.63;99253.72;5095004;28;20453;-70
2021/08/19 01:50:42;;;;;;;64.40;43.78;;;;;;;20.13;60.11;99254.13;5094789;28;20035;-70
2021/08/19 01:53:08;;;;;;;63.65;46.08;;;;;;;20.11;60.51;99251.63;5093560;28;20047;-72
2021/08/19 01:55:33;;;;;;;66.68;45.20;;;;;;;20.07;61.31;99253.13;5094798;28;20488;-72
2021/08/19 01:57:59;;;;;;;69.35;46.70;;;;;;;20.16;60.69;99247.41;5095461;28;20055;-71
2021/08/19 02:00:24;;;;;;;69.65;47.40;;;;;;;20.11;60.93;99248.06;5094088;28;20460;-70
2021/08/19 02:02:50;;;;;;;67.25;46.45;;;;;;;20.10;60.33;99252.69;5094516;28;20024;-70
2021/08/19 02:05:15;;;;;;;70.70;50.03;;;;;;;20.10;60.79;99249.13;5094602;28;20020;-71
2021/08/19 02:07:41;;;;;;;67.03;45.58;;;;;;;20.12;61.51;99253.28;5094680;28;20052;-70
2021/08/19 02:10:07;;;;;;;68.55;47.78;;;;;;;20.10;60.35;99255.41;5088043;28;20103;-71
2021/08/19 02:12:33;;;;;;;65.65;44.65;;;;;;;20.09;60.74;99259.19;5096097;28;20067;-71
2021/08/19 02:14:59;;;;;;;64.70;46.25;;;;;;;20.11;60.29;99258.97;5080300;28;20058;-71
2021/08/19 02:17:25;;;;;;;63.45;43.65;;;;;;;20.11;60.54;99251.63;5079405;28;20034;-73
2021/08/19 02:19:51;;;;;;;67.82;47.63;;;;;;;20.09;61.01;99253.75;5093981;28;20388;-72
2021/08/19 02:22:16;;;;;;;67.18;46.53;;;;;;;20.10;60.02;99260.88;5094315;28;20020;-71
2021/08/19 02:24:44;;;;;;;71.07;47.63;;;;;;;20.12;60.50;99257.91;5099055;28;20488;-72
2021/08/19 02:27:09;;;;;;;72.20;49.97;;;;;;;20.05;60.88;99255.25;5094106;28;20024;-72
2021/08/19 02:29:35;;;;;;;73.35;49.92;;;;;;;20.06;61.14;99254.19;5091665;28;20016;-71
2021/08/19 02:32:00;;;;;;;62.75;44.17;;;;;;;20.03;61.38;99254.63;5090338;28;20103;-71
2021/08/19 02:34:25;;;;;;;64.15;45.25;;;;;;;20.06;61.09;99250.63;5079154;28;20032;-71
2021/08/19 02:36:51;;;;;;;67.28;46.03;;;;;;;20.03;60.90;99249.19;5092666;28;20024;-71
2021/08/19 02:42:39;;;;;;;63.53;45.13;;;;;;;20.04;60.81;99267.22;5099538;28;20040;-71
2021/08/19 02:45:05;;;;;;;66.03;46.67;;;;;;;19.98;60.74;99257.16;5092940;28;20054;-71
2021/08/19 02:47:30;;;;;;;68.18;45.88;;;;;;;20.03;60.90;99251.06;5094080;28;20027;-71
2021/08/19 02:49:56;;;;;;;62.33;43.67;;;;;;;20.04;61.11;99250.84;5079795;28;20107;-73
2021/08/19 02:52:23;;;;;;;72.22;47.85;;;;;;;20.04;61.19;99244.56;5078000;28;20028;-71
2021/08/19 02:54:49;;;;;;;66.72;48.10;;;;;;;19.98;61.33;99248.97;5073744;28;20407;-71
2021/08/19 02:57:14;;;;;;;71.45;47.15;;;;;;;20.00;61.34;99248.78;5073413;28;20093;-72
2021/08/19 02:59:40;;;;;;;71.95;47.42;;;;;;;19.97;61.20;99255.50;5073720;28;20041;-72
2021/08/19 03:02:05;;;;;;;71.45;48.08;;;;;;;19.96;60.82;99242.91;5073788;28;20366;-72
2021/08/19 03:04:31;;;;;;;74.28;47.40;;;;;;;20.01;60.93;99248.56;5073679;28;20031;-71
2021/08/19 03:07:12;;;;;;;74.25;48.92;;;;;;;19.96;61.27;99259.28;5075859;28;20033;-72
2021/08/19 03:09:38;;;;;;;64.40;44.95;;;;;;;19.99;61.46;99258.03;5074183;28;20025;-72
2021/08/19 03:12:05;;;;;;;67.40;46.50;;;;;;;19.99;61.33;99247.13;5077782;28;20028;-71
2021/08/19 03:15:00;;;;;;;71.35;49.85;;;;;;;19.90;61.52;99238.34;5079369;28;20404;-72
2021/08/19 03:17:27;;;;;;;71.82;49.20;;;;;;;19.87;62.05;99236.06;5094629;28;20033;-72
2021/08/19 03:20:01;;;;;;;70.32;49.30;;;;;;;19.84;62.60;99233.78;5080726;28;20028;-69
2021/08/19 03:22:27;;;;;;;74.60;50.20;;;;;;;19.88;61.94;99235.00;5077609;28;20028;-71
2021/08/19 03:24:52;;;;;;;73.25;50.03;;;;;;;19.87;62.06;99233.34;5077077;28;20690;-70
2021/08/19 03:27:17;;;;;;;76.40;53.80;;;;;;;19.87;62.55;99237.97;5077475;28;20032;-70
2021/08/19 03:29:43;;;;;;;80.95;55.25;;;;;;;19.81;62.87;99245.09;5077199;28;20021;-71
2021/08/19 03:32:08;;;;;;;74.95;53.72;;;;;;;19.85;62.67;99235.47;5095271;28;20020;-70
2021/08/19 03:34:34;;;;;;;78.57;55.65;;;;;;;19.82;62.18;99235.91;5082246;28;20411;-70
2021/08/19 03:36:59;;;;;;;77.82;55.88;;;;;;;19.81;62.85;99237.75;5079706;28;20401;-70
2021/08/19 03:39:26;;;;;;;81.25;54.13;;;;;;;19.76;63.46;99231.31;5077093;28;20104;-73
2021/08/19 03:41:52;;;;;;;80.85;56.05;;;;;;;19.77;63.57;99243.88;5077139;28;20408;-71
2021/08/19 03:44:17;;;;;;;79.00;56.03;;;;;;;19.79;63.03;99236.31;5093083;28;20461;-72
2021/08/19 03:46:44;;;;;;;83.75;59.35;;;;;;;19.79;62.97;99241.78;5076902;28;20024;-73
2021/08/19 03:49:10;;;;;;;78.45;55.97;;;;;;;19.78;62.92;99232.75;5079414;28;20105;-72
2021/08/19 03:51:36;;;;;;;78.30;57.08;;;;;;;19.80;63.25;99235.25;5077038;28;20024;-72
2021/08/19 03:54:01;;;;;;;81.72;56.78;;;;;;;19.79;63.09;99241.78;5076706;28;20051;-72
2021/08/19 03:56:31;;;;;;;88.03;59.60;;;;;;;19.78;63.51;99251.00;5075860;28;20056;-71
2021/08/19 03:58:56;;;;;;;76.65;56.17;;;;;;;19.78;63.00;99248.28;5077040;28;20037;-69
2021/08/19 04:01:22;;;;;;;81.43;57.25;;;;;;;19.81;63.34;99256.03;5080300;28;20074;-71
2021/08/19 04:03:48;;;;;;;81.43;58.92;;;;;;;20.73;61.18;99249.88;5076731;28;20032;-73
2021/08/19 04:06:13;;;;;;;83.60;57.60;;;;;;;21.06;59.49;99253.34;5075365;28;20492;-71
2021/08/19 04:08:39;;;;;;;80.45;57.97;;;;;;;21.25;59.54;99247.66;5076522;28;20036;-72
2021/08/19 04:11:07;;;;;;;81.30;58.22;;;;;;;21.46;58.87;99246.34;5075607;28;20471;-72
2021/08/19 04:13:33;;;;;;;92.63;62.85;;;;;;;21.59;59.24;99248.91;5078954;28;20051;-71
2021/08/19 04:16:07;;;;;;;87.78;62.47;;;;;;;21.70;58.65;99243.75;5095031;28;20068;-72
2021/08/19 04:18:33;;;;;;;84.65;60.90;;;;;;;21.80;58.48;99250.31;5086053;28;20037;-71
2021/08/19 04:21:00;;;;;;;86.80;61.45;;;;;;;21.87;58.69;99245.59;5074739;28;20016;-73
2021/08/19 04:23:25;;;;;;;85.82;63.30;;;;;;;21.92;58.60;99248.47;5088823;28;20024;-72
2021/08/19 04:25:51;;;;;;;85.13;62.28;;;;;;;21.91;59.25;99233.13;5096526;28;20036;-72
2021/08/19 04:28:17;;;;;;;85.25;61.88;;;;;;;22.00;59.23;99238.22;5098072;28;20059;-73
2021/08/19 04:30:42;;;;;;;89.22;63.22;;;;;;;22.02;59.77;99238.88;5096499;28;20024;-72
2021/08/19 04:33:08;;;;;;;82.65;62.28;;;;;;;22.14;58.82;99239.72;5096166;28;20031;-73
2021/08/19 04:35:36;;;;;;;86.53;64.15;;;;;;;22.12;60.07;99244.63;5096179;28;20078;-73
2021/08/19 04:38:03;;;;;;;88.82;64.00;;;;;;;22.13;59.95;99243.53;5096502;28;20034;-73
2021/08/19 04:40:28;;;;;;;86.13;62.97;;;;;;;22.07;60.23;99242.59;5096528;28;20020;-73
2021/08/19 04:42:54;;;;;;;90.20;65.70;;;;;;;22.17;59.87;99250.22;5100052;28;20054;-73
2021/08/19 04:45:20;;;;;;;91.07;66.05;;;;;;;22.19;60.09;99261.78;5095052;28;20070;-72
2021/08/19 04:47:45;;;;;;;84.70;64.05;;;;;;;22.19;60.20;99256.31;5096263;28;20024;-71
2021/08/19 04:50:11;;;;;;;92.75;67.63;;;;;;;22.29;59.13;99259.28;5096283;28;20073;-72
2021/08/19 04:52:37;;;;;;;89.93;65.97;;;;;;;22.19;60.61;99259.03;5096265;28;20430;-71
2021/08/19 04:55:02;;;;;;;90.32;65.50;;;;;;;22.29;59.38;99253.81;5101937;28;20027;-70
2021/08/19 04:57:29;;;;;;;88.90;65.10;;;;;;;22.28;59.08;99260.34;5089014;28;20044;-72
2021/08/19 04:59:54;;;;;;;90.53;65.90;;;;;;;22.27;59.77;99258.69;5093517;28;20024;-72
2021/08/19 05:02:20;;;;;;;83.25;61.75;;;;;;;22.26;58.75;99267.13;5092866;28;20093;-72
2021/08/19 05:04:45;;;;;;;82.00;62.20;;;;;;;22.16;59.01;99264.97;5074201;28;20483;-72
2021/08/19 05:07:10;;;;;;;83.35;63.22;;;;;;;22.16;58.82;99264.97;5085790;28;20377;-71
2021/08/19 05:09:36;;;;;;;88.45;64.82;;;;;;;22.23;58.63;99265.72;5100108;28;20203;-71
2021/08/19 05:12:01;;;;;;;90.53;65.43;;;;;;;22.18;57.84;99271.06;5096267;28;20024;-71
2021/08/19 05:14:47;;;;;;;87.38;64.93;;;;;;;22.22;59.27;99275.00;5121057;28;20024;-72
2021/08/19 05:17:12;;;;;;;89.40;66.03;;;;;;;22.22;58.25;99277.72;5095308;28;20046;-74
2021/08/19 05:19:38;;;;;;;93.32;68.50;;;;;;;22.25;58.13;99285.47;5094498;28;20464;-72
2021/08/19 05:22:03;;;;;;;90.38;66.40;;;;;;;22.18;58.61;99284.75;5095756;28;20594;-73
2021/08/19 05:24:32;;;;;;;87.85;66.55;;;;;;;22.19;58.27;99270.84;5095244;28;20028;-73
2021/08/19 05:26:58;;;;;;;89.47;62.78;;;;;;;22.18;58.10;99279.28;5095438;28;20028;-71
2021/08/19 05:29:24;;;;;;;91.40;65.70;;;;;;;22.17;58.01;99285.78;5095444;28;20073;-70
2021/08/19 05:31:50;;;;;;;92.95;67.47;;;;;;;22.20;58.26;99288.09;5095689;28;20448;-71
2021/08/19 05:34:15;;;;;;;92.88;66.07;;;;;;;22.21;57.98;99278.81;5094871;28;20077;-72
2021/08/19 05:36:41;;;;;;;92.97;68.15;;;;;;;22.15;59.02;99287.94;5097115;28;20488;-71
2021/08/19 05:39:08;;;;;;;88.00;66.65;;;;;;;22.26;58.58;99281.66;5095158;28;20128;-72
2021/08/19 05:41:33;;;;;;;88.80;68.00;;;;;;;22.21;59.23;99296.06;5095087;28;20416;-70
2021/08/19 05:43:58;;;;;;;86.70;66.55;;;;;;;22.26;58.74;99289.88;5095372;28;20052;-70
2021/08/19 05:46:25;;;;;;;93.93;67.53;;;;;;;22.36;58.56;99292.06;5095338;28;20522;-70
2021/08/19 05:48:50;;;;;;;92.18;68.70;;;;;;;22.20;58.60;99288.09;5111068;28;20059;-72
2021/08/19 05:51:16;;;;;;;93.50;65.80;;;;;;;22.21;59.02;99296.06;5095104;28;20076;-71
2021/08/19 05:53:42;;;;;;;90.80;67.75;;;;;;;22.21;59.13;99281.53;5091185;28;20061;-71
2021/08/19 05:56:08;;;;;;;94.18;69.28;;;;;;;22.28;59.14;99295.94;5076243;28;20060;-72
2021/08/19 05:58:33;;;;;;;92.28;67.05;;;;;;;22.20;58.92;99293.56;5074778;28;20024;-72
2021/08/19 06:00:59;;;;;;;94.03;68.50;;;;;;;22.30;58.44;99304.75;5091974;28;20028;-72
2021/08/19 06:03:24;;;;;;;91.85;67.90;;;;;;;22.30;59.02;99304.75;5094023;28;20056;-73
2021/08/19 06:05:50;;;;;;;93.82;68.82;;;;;;;22.29;58.94;99303.09;5093740;28;20361;-70
2021/08/19 06:08:16;;;;;;;89.80;67.15;;;;;;;22.39;59.01;99308.84;5094180;28;20536;-70
2021/08/19 06:10:41;;;;;;;94.80;67.55;;;;;;;22.35;58.78;99312.28;5088042;28;20111;-71
2021/08/19 06:13:07;;;;;;;88.75;66.35;;;;;;;22.27;59.72;99321.66;5085962;28;20126;-71
2021/08/19 06:15:35;;;;;;;94.72;69.15;;;;;;;22.33;60.02;99331.66;5095102;28;20080;-71
2021/08/19 06:18:01;;;;;;;88.35;66.65;;;;;;;22.31;58.76;99327.50;5100630;28;20047;-71
2021/08/19 06:20:44;;;;;;;91.38;66.50;;;;;;;22.29;59.39;99327.72;5114781;28;20047;-71
2021/08/19 06:23:13;;;;;;;91.00;67.70;;;;;;;22.24;58.75;99327.59;5093793;28;20027;-71
2021/08/19 06:25:42;;;;;;;94.10;69.90;;;;;;;22.34;59.17;99333.34;5091200;28;20040;-71
2021/08/19 06:28:08;;;;;;;93.03;67.80;;;;;;;22.41;58.58;99339.56;5084764;28;20051;-72
2021/08/19 06:30:34;;;;;;;90.70;69.28;;;;;;;22.37;58.67;99359.44;5092699;28;20035;-72
2021/08/19 06:33:01;;;;;;;94.95;69.22;;;;;;;22.31;58.93;99349.38;5088092;28;20024;-68
2021/08/19 06:35:26;;;;;;;92.80;66.60;;;;;;;22.37;59.06;99343.84;5089860;28;20111;-68
2021/08/19 06:37:52;;;;;;;90.40;65.10;;;;;;;22.32;59.30;99354.63;5090972;28;20119;-67
2021/08/19 06:40:17;;;;;;;89.40;67.25;;;;;;;22.32;59.29;99346.41;5092401;28;20095;-67
2021/08/19 06:42:43;;;;;;;92.40;66.20;;;;;;;22.35;59.30;99351.44;5082597;28;20628;-67
2021/08/19 06:45:09;;;;;;;88.82;67.22;;;;;;;22.45;59.10;99356.34;5077667;28;20085;-68
2021/08/19 06:47:34;;;;;;;94.97;69.50;;;;;;;22.38;59.86;99350.97;5095566;28;20046;-68
2021/08/19 06:50:00;;;;;;;86.55;66.13;;;;;;;22.34;59.19;99360.72;5091006;28;20027;-68
2021/08/19 06:52:25;;;;;;;92.50;67.70;;;;;;;22.49;59.42;99358.38;5092395;28;20042;-68
2021/08/19 06:54:51;;;;;;;96.65;68.18;;;;;;;22.41;59.23;99355.97;5084092;28;20137;-68
2021/08/19 06:57:16;;;;;;;92.40;67.88;;;;;;;22.35;59.36;99356.94;5092112;28;20052;-69
2021/08/19 06:59:41;;;;;;;92.05;67.97;;;;;;;22.30;60.03;99364.16;5092131;28;20103;-70
2021/08/19 07:02:06;;;;;;;93.82;70.40;;;;;;;22.37;60.24;99367.63;5089746;28;20035;-68
2021/08/19 07:04:32;;;;;;;97.85;70.72;;;;;;;22.40;59.58;99376.22;5085537;28;20020;-69
2021/08/19 07:06:57;;;;;;;91.75;68.53;;;;;;;22.37;58.92;99367.63;5080912;28;20047;-69
2021/08/19 07:09:59;;;;;;;96.97;70.22;;;;;;;22.40;59.65;99376.22;5100332;28;20048;-69
2021/08/19 07:12:24;;;;;;;97.30;70.50;;;;;;;22.27;60.36;99379.13;5095281;28;20039;-68
2021/08/19 07:14:50;;;;;;;95.53;71.30;;;;;;;22.36;59.90;99382.41;5091462;28;20376;-69
2021/08/19 07:17:15;;;;;;;95.80;71.05;;;;;;;22.35;59.31;99381.56;5094361;28;20381;-69
2021/08/19 07:19:41;;;;;;;92.50;70.88;;;;;;;22.33;60.01;99391.88;5076260;28;20025;-69
2021/08/19 07:22:06;;;;;;;95.72;68.63;;;;;;;22.41;59.09;99396.22;5084109;28;20029;-69
2021/08/19 07:24:31;;;;;;;94.47;68.53;;;;;;;22.44;59.21;99396.59;5079500;28;20032;-68
2021/08/19 07:26:57;;;;;;;95.22;70.07;;;;;;;22.43;59.13;99392.19;5090270;28;20031;-68
2021/08/19 07:29:23;;;;;;;79.85;60.75;;;;;;;22.49;57.64;99395.88;5085734;28;20448;-68
2021/08/19 07:31:50;;;;;;;69.53;52.47;;;;;;;22.60;55.97;99399.72;5088607;28;20483;-68
2021/08/19 07:34:15;;;;;;;66.43;50.08;;;;;;;22.68;55.51;99399.41;5094338;28;20146;-70
2021/08/19 07:36:40;;;;;;;54.22;42.05;;;;;;;22.75;54.60;99400.13;5088663;28;20107;-68
2021/08/19 07:39:07;;;;;;;48.22;39.47;;;;;;;22.71;53.72;99404.41;5091233;28;20517;-67
2021/08/19 07:41:33;;;;;;;47.25;36.22;;;;;;;22.80;53.96;99403.00;5082042;28;20023;-68
2021/08/19 07:43:59;;;;;;;42.38;34.20;;;;;;;22.79;52.69;99406.81;5084703;28;20036;-67
2021/08/19 07:46:25;;;;;;;36.20;29.65;;;;;;;22.83;52.00;99408.03;5090255;28;20036;-68
2021/08/19 07:48:50;;;;;;;34.78;27.88;;;;;;;22.83;51.77;99424.47;5092239;28;20491;-68
2021/08/19 07:51:16;;;;;;;32.75;25.38;;;;;;;22.83;51.62;99418.16;5095077;28;20060;-69
2021/08/19 07:53:42;;;;;;;26.98;22.92;;;;;;;22.86;50.76;99434.16;5091574;28;20472;-65
2021/08/19 07:56:08;;;;;;;24.60;20.50;;;;;;;22.84;50.81;99431.59;5091422;28;20549;-62
2021/08/19 07:58:33;;;;;;;21.65;18.42;;;;;;;22.91;50.04;99442.50;5094686;28;20023;-62
2021/08/19 08:00:58;;;;;;;18.73;15.75;;;;;;;22.78;51.19;99444.31;5096045;28;20020;-66
2021/08/19 08:03:25;;;;;;;17.40;14.55;;;;;;;22.92;49.25;99447.72;5094630;28;20024;-66
2021/08/19 08:05:50;;;;;;;13.90;11.98;;;;;;;22.85;49.40;99455.22;5095812;28;20061;-67
2021/08/19 08:08:16;;;;;;;12.50;11.18;;;;;;;22.90;49.93;99451.78;5095909;28;20028;-66
2021/08/19 08:10:43;;;;;;;11.13;9.95;;;;;;;22.92;49.46;99458.69;5098955;28;20072;-67
2021/08/19 08:13:11;;;;;;;10.70;9.60;;;;;;;22.85;50.17;99460.72;5093137;28;20032;-67
2021/08/19 08:15:37;;;;;;;8.55;7.70;;;;;;;22.93;49.00;99474.06;5090378;28;20111;-65
2021/08/19 08:18:04;;;;;;;7.80;7.00;;;;;;;22.91;49.29;99473.47;5087271;28;20186;-66
2021/08/19 08:20:30;;;;;;;7.40;6.70;;;;;;;22.88;49.72;99476.69;5096492;28;20031;-67
2021/08/19 08:22:55;;;;;;;6.97;6.28;;;;;;;22.91;49.41;99476.19;5095325;28;20023;-65
2021/08/19 08:25:21;;;;;;;5.80;5.25;;;;;;;22.97;48.41;99482.63;5094418;28;20028;-66
2021/08/19 08:27:59;;;;;;;6.32;5.35;;;;;;;22.96;48.56;99490.03;5090616;28;20170;-66
2021/08/19 08:30:26;;;;;;;5.25;4.72;;;;;;;22.95;48.93;99491.09;5094356;28;20483;-66
2021/08/19 08:32:51;;;;;;;4.40;3.85;;;;;;;22.93;49.38;99493.25;5083060;28;20035;-67
2021/08/19 08:35:16;;;;;;;3.97;3.58;;;;;;;22.91;49.30;99492.66;5095398;28;20460;-66
2021/08/19 08:37:42;;;;;;;3.78;3.33;;;;;;;22.92;49.58;99485.25;5098422;28;20372;-66
2021/08/19 08:40:18;;;;;;;3.80;3.08;;;;;;;22.91;48.67;99489.91;5098860;28;20484;-65
2021/08/19 08:42:45;;;;;;;3.13;2.67;;;;;;;22.95;49.12;99487.53;5094890;28;20043;-66
2021/08/19 08:45:13;;;;;;;3.25;2.75;;;;;;;22.97;48.08;99491.69;5094793;28;20035;-66
2021/08/19 08:47:39;;;;;;;3.35;2.40;;;;;;;22.92;48.94;99494.31;5095013;28;20023;-66
2021/08/19 08:50:07;;;;;;;2.47;2.28;;;;;;;22.94;48.86;99497.66;5082141;28;20063;-66
2021/08/19 08:52:34;;;;;;;2.08;1.95;;;;;;;22.91;49.04;99498.13;5089836;28;20119;-66
2021/08/19 08:55:02;;;;;;;2.33;1.60;;;;;;;23.00;49.39;99510.41;5095355;28;20111;-66
2021/08/19 08:57:27;;;;;;;1.27;1.17;;;;;;;22.94;47.75;99505.88;5088255;28;20040;-66
2021/08/19 08:59:54;;;;;;;2.05;1.27;;;;;;;22.92;48.80;99515.41;5086098;28;20036;-65
2021/08/19 09:02:19;;;;;;;1.52;1.20;;;;;;;22.99;48.30;99516.97;5093200;28;20438;-65
2021/08/19 09:04:44;;;;;;;1.20;0.90;;;;;;;23.02;48.45;99515.69;5094345;28;20566;-66
2021/08/19 09:07:10;;;;;;;0.98;0.98;;;;;;;22.98;48.31;99530.91;5092317;28;20024;-66
2021/08/19 09:09:36;;;;;;;1.73;1.20;;;;;;;22.97;48.30;99530.06;5092071;28;20016;-66
2021/08/19 09:12:05;;;;;;;1.15;0.98;;;;;;;22.98;48.93;99531.72;5088034;28;20153;-66
2021/08/19 09:14:35;;;;;;;1.30;1.23;;;;;;;23.01;48.77;99536.78;5092249;28;20020;-66
2021/08/19 09:17:00;;;;;;;0.90;0.70;;;;;;;22.98;48.46;99544.59;5085915;28;20052;-66
2021/08/19 09:19:31;;;;;;;0.90;0.70;;;;;;;23.02;48.30;99545.84;5090963;28;20388;-66
2021/08/19 09:21:59;;;;;;;0.63;0.63;;;;;;;22.94;48.39;99548.88;5091615;28;20061;-66
2021/08/19 09:24:34;;;;;;;1.35;0.80;;;;;;;23.04;47.95;99554.66;5091106;28;20035;-66
2021/08/19 09:27:10;;;;;;;1.63;0.80;;;;;;;22.98;48.29;99559.13;5091376;28;20059;-65
2021/08/19 09:29:35;;;;;;;1.58;0.50;;;;;;;22.97;48.62;99553.88;5086918;28;20050;-66
2021/08/19 09:32:19;;;;;;;1.42;0.60;;;;;;;23.01;48.61;99555.97;5091242;28;21617;-65
2021/08/19 09:34:47;;;;;;;0.88;0.40;;;;;;;23.01;49.08;99553.22;5091335;28;20069;-65
2021/08/19 09:37:18;;;;;;;0.75;0.50;;;;;;;23.03;47.97;99564.78;5085685;28;20027;-66
2021/08/19 09:39:47;;;;;;;2.30;0.55;;;;;;;22.99;48.06;99568.19;5087923;28;20059;-66
2021/08/19 09:42:15;;;;;;;2.75;0.52;;;;;;;23.01;48.14;99566.91;5087213;28;20024;-66
2021/08/19 09:44:46;;;;;;;2.00;0.60;;;;;;;23.02;49.09;99571.34;5088359;28;20039;-65
2021/08/19 09:47:31;;;;;;;0.57;0.47;;;;;;;23.07;48.24;99568.72;5086093;28;20027;-66
2021/08/19 09:50:11;;;;;;;1.20;0.50;;;;;;;23.02;48.76;99570.50;5094382;28;20040;-65
2021/08/19 09:52:36;;;;;;;1.38;0.40;;;;;;;22.94;48.58;99574.38;5091814;28;20020;-65
2021/08/19 09:55:24;;;;;;;3.75;0.57;;;;;;;23.03;48.27;99594.94;5093304;28;20475;-65
2021/08/19 09:57:49;;;;;;;1.08;0.50;;;;;;;23.05;48.93;99575.50;5028759;28;20060;-65
2021/08/19 10:00:41;;;;;;;1.10;0.32;;;;;;;23.04;49.79;99591.13;5030709;28;20033;-66
2021/08/19 10:03:11;;;;;;;0.75;0.30;;;;;;;23.03;48.73;99592.19;5030604;28;20037;-70
2021/08/19 10:05:38;;;;;;;0.95;0.45;;;;;;;23.03;47.96;99600.41;5033908;28;20061;-70
2021/08/19 10:08:03;;;;;;;1.48;0.50;;;;;;;23.05;48.46;99592.78;5030995;28;20052;-71
2021/08/19 10:10:29;;;;;;;1.35;0.40;;;;;;;22.97;48.79;99598.56;5043362;28;20061;-71
2021/08/19 10:13:00;;;;;;;0.47;0.28;;;;;;;23.06;49.00;99599.94;5039789;28;20032;-70
2021/08/19 10:15:26;;;;;;;0.73;0.40;;;;;;;23.13;48.45;99599.84;5032835;28;20033;-70
2021/08/19 10:17:56;;;;;;;0.80;0.20;;;;;;;23.08;48.16;99596.97;5032168;28;20025;-70
2021/08/19 10:20:30;;;;;;;0.75;0.32;;;;;;;23.05;47.95;99598.28;5030218;28;20382;-71
2021/08/19 10:22:59;;;;;;;1.42;0.30;;;;;;;23.05;48.21;99608.41;5033666;28;20045;-71
2021/08/19 10:25:26;;;;;;;0.45;0.22;;;;;;;23.05;48.71;99605.66;5029497;28;20506;-71
2021/08/19 10:28:21;;;;;;;0.40;0.20;;;;;;;23.02;47.78;99601.47;5029758;28;20534;-68
2021/08/19 10:30:47;;;;;;;0.88;0.20;;;;;;;23.04;48.05;99607.56;5011367;28;20033;-67
2021/08/19 10:33:35;;;;;;;1.15;0.40;;;;;;;23.04;49.44;99601.25;5010087;28;20030;-67
2021/08/19 10:36:29;;;;;;;2.42;0.28;;;;;;;23.03;47.52;99600.41;5047501;28;20052;-66
2021/08/19 10:39:19;;;;;;;0.10;0.10;;;;;;;23.04;48.21;99598.50;5050583;28;20446;-67
2021/08/19 10:41:51;;;;;;;1.13;0.50;;;;;;;23.06;48.28;99599.94;5050048;28;20525;-67
2021/08/19 10:44:17;;;;;;;0.55;0.30;;;;;;;23.08;48.12;99606.03;5050256;28;20039;-67
2021/08/19 10:46:49;;;;;;;0.25;0.22;;;;;;;23.07;47.43;99607.09;5046318;28;20072;-67
2021/08/19 10:49:31;;;;;;;1.13;0.15;;;;;;;23.04;47.89;99618.53;5041411;28;20029;-66
2021/08/19 10:52:23;;;;;;;0.38;0.20;;;;;;;23.02;49.23;99612.44;5050167;28;20056;-66
2021/08/19 10:54:50;;;;;;;0.50;0.20;;;;;;;23.05;48.27;99625.69;5010539;28;20041;-67
2021/08/19 10:57:25;;;;;;;0.98;0.43;;;;;;;23.11;47.53;99627.47;4998719;28;20751;-66
2021/08/19 11:00:01;;;;;;;1.65;0.50;;;;;;;23.10;48.29;99628.56;5011249;28;20038;-67
2021/08/19 11:02:45;;;;;;;0.85;0.43;;;;;;;23.07;48.32;99640.00;5009304;28;20026;-67
2021/08/19 11:05:31;;;;;;;;;;;;;;;23.14;48.37;99639.06;5008987;28;20046;-66
2021/08/19 11:08:01;;;;;;;0.22;0.10;;;;;;;23.10;48.16;99636.78;5026681;28;19913;-68
2021/08/19 11:10:36;;;;;;;0.63;0.20;;;;;;;23.09;47.55;99648.81;5022162;28;20030;-67
2021/08/19 11:13:05;;;;;;;1.08;0.30;;;;;;;23.04;47.61;99658.81;5026830;28;20709;-67
2021/08/19 11:15:31;;;;;;;0.20;0.10;;;;;;;23.08;48.54;99658.09;5012993;28;20036;-67
2021/08/19 11:17:59;;;;;;;0.75;0.28;;;;;;;23.08;47.69;99663.59;5025729;28;20052;-67
2021/08/19 11:20:47;;;;;;;0.65;0.30;;;;;;;23.19;48.98;99685.81;5024728;28;20089;-66
2021/08/19 11:23:12;;;;;;;0.43;0.22;;;;;;;23.34;49.00;99673.34;5025089;28;20033;-66
2021/08/19 11:25:40;;;;;;;0.25;0.20;;;;;;;23.37;49.55;99661.09;5029856;28;20030;-66
2021/08/19 11:28:19;;;;;;;0.17;0.15;;;;;;;23.26;49.96;99653.66;5041266;28;20037;-65